createdAt,value
2022-11-21T00:01:26.368Z,0.00
2022-11-21T00:05:29.348Z,0.10
2022-11-21T00:09:33.928Z,0.10
2022-11-21T00:13:35.955Z,0.00
2022-11-21T00:17:37.867Z,0.10
2022-11-21T00:21:39.817Z,0.10
2022-11-21T00:25:41.649Z,0.10
2022-11-21T00:29:43.504Z,0.10
2022-11-21T00:33:45.347Z,0.20
2022-11-21T00:37:48.737Z,0.10
2022-11-21T00:41:50.612Z,0.10
2022-11-21T00:45:52.513Z,0.20
2022-11-21T00:49:54.319Z,0.20
2022-11-21T00:53:56.155Z,0.20
2022-11-21T00:57:58.005Z,0.30
2022-11-21T01:01:59.993Z,0.30
2022-11-21T01:06:04.186Z,0.30
2022-11-21T01:10:08.802Z,0.40
2022-11-21T01:14:10.763Z,0.50
2022-11-21T01:18:12.589Z,0.50
2022-11-21T01:22:14.479Z,0.50
2022-11-21T01:26:22.263Z,0.50
2022-11-21T01:30:52.140Z,0.60
2022-11-21T01:34:53.946Z,0.60
2022-11-21T01:38:59.014Z,0.70
2022-11-21T01:43:04.499Z,0.70
2022-11-21T01:47:06.347Z,0.70
2022-11-21T01:51:33.205Z,0.80
2022-11-21T01:55:35.273Z,0.90
2022-11-21T01:59:54.693Z,0.90
2022-11-21T02:03:56.864Z,0.90
2022-11-21T02:08:03.159Z,1.00
2022-11-21T02:12:13.577Z,1.10
2022-11-21T02:16:15.456Z,1.20
2022-11-21T02:20:23.336Z,1.20
2022-11-21T02:24:46.431Z,1.30
2022-11-21T02:28:48.256Z,1.40
2022-11-21T02:32:50.098Z,1.50
2022-11-21T02:36:52.017Z,1.60
2022-11-21T02:41:26.955Z,1.60
2022-11-21T02:45:35.973Z,1.60
2022-11-21T02:50:11.393Z,1.70
2022-11-21T02:54:13.235Z,1.80
2022-11-21T02:58:15.256Z,1.90
2022-11-21T03:02:17.123Z,1.90
2022-11-21T03:06:25.667Z,1.90
2022-11-21T03:10:33.650Z,2.00
2022-11-21T03:14:42.649Z,2.00
2022-11-21T03:19:04.641Z,2.10
2022-11-21T03:23:06.516Z,2.20
2022-11-21T03:27:08.488Z,2.30
2022-11-21T03:31:10.359Z,2.30
2022-11-21T03:35:12.202Z,2.40
2022-11-21T03:39:14.019Z,2.40
2022-11-21T03:43:15.825Z,2.40
2022-11-21T03:47:17.647Z,2.40
2022-11-21T03:55:35.570Z,2.30
2022-11-21T03:59:37.448Z,2.40
2022-11-21T04:03:44.074Z,2.40
2022-11-21T04:07:46.299Z,2.40
2022-11-21T04:11:48.200Z,2.50
2022-11-21T04:15:50.216Z,2.50
2022-11-21T04:19:52.180Z,2.50
2022-11-21T04:23:54.005Z,2.60
2022-11-21T04:28:00.104Z,2.70
2022-11-21T04:32:01.933Z,2.70
2022-11-21T04:36:03.902Z,2.60
2022-11-21T04:40:06.370Z,2.60
2022-11-21T04:44:08.161Z,2.60
2022-11-21T04:48:13.225Z,2.70
2022-11-21T04:52:15.100Z,2.70
2022-11-21T04:56:17.035Z,2.70
2022-11-21T05:00:24.001Z,2.80
2022-11-21T05:04:26.760Z,2.80
2022-11-21T05:08:34.834Z,2.90
2022-11-21T05:13:18.770Z,2.80
2022-11-21T05:17:23.844Z,2.90
2022-11-21T05:21:25.737Z,2.90
2022-11-21T05:25:27.807Z,2.90
2022-11-21T05:29:29.835Z,3.00
2022-11-21T05:33:31.910Z,3.00
2022-11-21T05:37:33.942Z,3.10
2022-11-21T05:41:36.202Z,3.10
2022-11-21T05:46:12.914Z,3.10
2022-11-21T05:50:19.438Z,3.10
2022-11-21T05:54:21.449Z,3.10
2022-11-21T05:58:23.348Z,3.00
2022-11-21T06:02:43.785Z,3.10
2022-11-21T06:06:45.806Z,3.10
2022-11-21T06:12:10.406Z,3.20
2022-11-21T06:20:51.717Z,3.30
2022-11-21T06:25:46.129Z,3.20
2022-11-21T06:29:48.728Z,3.30
2022-11-21T06:39:28.407Z,3.40
2022-11-21T06:44:01.199Z,3.40
2022-11-21T06:48:08.838Z,3.40
2022-11-21T06:52:15.581Z,3.40
2022-11-21T06:57:41.842Z,3.50
2022-11-21T07:47:37.626Z,3.10
2022-11-21T07:52:01.417Z,2.90
2022-11-21T08:01:45.033Z,2.80
2022-11-21T08:06:03.511Z,2.70
2022-11-21T08:11:22.498Z,2.60
2022-11-21T08:15:23.108Z,2.40
2022-11-21T08:19:53.096Z,2.40
2022-11-21T08:23:55.608Z,2.30
2022-11-21T08:27:58.274Z,2.20
2022-11-21T08:36:58.427Z,2.10
2022-11-21T08:37:05.355Z,2.00
2022-11-21T08:41:26.042Z,2.00
2022-11-21T08:45:30.611Z,2.10
2022-11-21T08:49:32.628Z,2.00
2022-11-21T08:53:34.509Z,2.10
2022-11-21T08:57:42.872Z,2.10
2022-11-21T09:01:45.039Z,2.00
2022-11-21T09:05:46.983Z,2.00
2022-11-21T09:09:48.803Z,2.00
2022-11-21T09:14:12.637Z,1.80
2022-11-21T09:18:14.499Z,1.70
2022-11-21T09:22:16.434Z,1.80
2022-11-21T09:26:18.271Z,1.70
2022-11-21T09:30:20.188Z,1.80
2022-11-21T09:34:22.324Z,1.90
2022-11-21T09:38:32.805Z,1.90
2022-11-21T09:43:07.628Z,1.90
2022-11-21T09:47:21.335Z,2.00
2022-11-21T09:51:23.409Z,2.00
2022-11-21T09:55:54.168Z,2.00
2022-11-21T09:59:56.184Z,2.00
2022-11-21T10:03:58.143Z,2.00
2022-11-21T10:08:17.656Z,2.10
2022-11-21T10:12:37.914Z,2.20
2022-11-21T10:17:48.993Z,2.20
2022-11-21T10:22:24.319Z,2.30
2022-11-21T10:26:45.264Z,2.40
2022-11-21T10:30:47.182Z,2.40
2022-11-21T10:34:49.705Z,2.40
2022-11-21T10:39:01.554Z,2.40
2022-11-21T10:49:29.931Z,2.30
2022-11-21T10:59:25.667Z,2.40
2022-11-21T11:04:26.327Z,2.50
2022-11-21T11:08:36.720Z,2.50
2022-11-21T11:13:52.260Z,2.50
2022-11-21T11:24:12.031Z,2.60
2022-11-21T11:49:17.130Z,2.90
2022-11-21T11:53:27.594Z,2.80
2022-11-21T11:58:25.453Z,2.90
2022-11-21T12:03:03.960Z,2.80
2022-11-21T12:12:08.284Z,2.90
2022-11-21T12:16:14.198Z,3.00
2022-11-21T12:20:27.572Z,3.10
2022-11-21T12:25:33.867Z,3.10
2022-11-21T12:47:31.748Z,3.10
2022-11-21T12:52:14.511Z,3.20
2022-11-21T12:56:32.828Z,3.10
2022-11-21T13:01:21.188Z,3.20
2022-11-21T13:05:37.447Z,3.30
2022-11-21T13:09:43.690Z,3.30
2022-11-21T13:13:47.240Z,3.40
2022-11-21T13:18:32.246Z,3.30
2022-11-21T13:22:38.786Z,3.40
2022-11-21T13:32:44.473Z,3.10
2022-11-21T13:36:52.396Z,2.80
2022-11-21T13:41:31.899Z,2.80
2022-11-21T13:46:28.648Z,2.90
2022-11-21T13:51:13.651Z,2.90
2022-11-21T14:11:55.296Z,3.00
2022-11-21T14:16:47.248Z,3.00
2022-11-21T14:21:18.813Z,2.90
2022-11-21T14:26:31.401Z,3.00
2022-11-21T14:31:29.800Z,2.70
2022-11-21T14:35:47.737Z,2.70
2022-11-21T14:40:02.134Z,2.70
2022-11-21T14:44:13.790Z,2.50
2022-11-21T14:48:18.478Z,2.50
2022-11-21T14:52:47.108Z,2.40
2022-11-21T14:57:00.873Z,2.50
2022-11-21T15:01:35.283Z,2.30
2022-11-21T15:10:30.985Z,2.30
2022-11-21T15:14:37.806Z,2.20
2022-11-21T15:18:43.137Z,2.20
2022-11-21T15:22:57.072Z,2.10
2022-11-21T15:26:59.332Z,2.10
2022-11-21T15:31:20.692Z,2.00
2022-11-21T15:35:58.167Z,2.00
2022-11-21T15:40:00.240Z,2.00
2022-11-21T15:44:02.117Z,2.00
2022-11-21T15:48:15.010Z,2.00
2022-11-21T15:52:35.719Z,2.10
2022-11-21T15:56:48.299Z,2.10
2022-11-21T16:01:47.447Z,2.10
2022-11-21T16:06:12.772Z,2.00
2022-11-21T16:10:22.627Z,2.10
2022-11-21T16:14:29.320Z,2.10
2022-11-21T16:18:31.452Z,2.10
2022-11-21T16:22:33.996Z,2.00
2022-11-21T16:26:37.004Z,2.00
2022-11-21T16:40:19.537Z,2.10
2022-11-21T16:44:22.610Z,2.10
2022-11-21T16:48:24.421Z,2.20
2022-11-21T16:52:26.380Z,2.10
2022-11-21T16:56:28.249Z,2.20
2022-11-21T17:00:30.205Z,2.20
2022-11-21T17:04:32.450Z,2.20
2022-11-21T17:08:37.871Z,2.10
2022-11-21T17:12:41.476Z,2.20
2022-11-21T17:16:49.448Z,2.20
2022-11-21T17:20:51.319Z,2.20
2022-11-21T17:24:53.724Z,2.10
2022-11-21T17:29:00.644Z,2.20
2022-11-21T17:33:02.817Z,2.20
2022-11-21T17:37:05.905Z,2.30
2022-11-21T17:41:24.610Z,2.30
2022-11-21T17:45:26.651Z,2.10
2022-11-21T17:49:37.414Z,2.20
2022-11-21T17:53:47.299Z,2.10
2022-11-21T17:57:55.077Z,2.00
2022-11-21T18:02:14.107Z,1.90
2022-11-21T18:06:20.758Z,1.80
2022-11-21T18:11:18.512Z,1.70
2022-11-21T18:15:27.448Z,1.60
2022-11-21T18:19:43.202Z,1.50
2022-11-21T18:24:39.872Z,1.40
2022-11-21T18:44:58.365Z,1.20
2022-11-21T18:49:08.442Z,1.10
2022-11-21T18:59:20.174Z,1.10
2022-11-21T19:03:22.804Z,1.10
2022-11-21T19:07:29.783Z,1.00
2022-11-21T19:11:56.743Z,1.10
2022-11-21T19:33:24.665Z,1.00
2022-11-21T19:37:40.032Z,1.00
2022-11-21T19:49:13.523Z,0.90
2022-11-21T19:58:24.228Z,0.90
2022-11-21T20:15:35.874Z,0.80
2022-11-21T20:16:52.572Z,0.80
2022-11-21T20:21:26.510Z,0.70
2022-11-21T20:30:18.341Z,0.70
2022-11-21T20:34:32.250Z,0.70
2022-11-21T20:39:03.306Z,0.60
2022-11-21T20:48:27.690Z,0.60
2022-11-21T20:53:50.333Z,0.60
2022-11-21T20:57:03.323Z,0.60
2022-11-21T21:01:06.185Z,0.60
2022-11-21T21:11:04.372Z,0.60
2022-11-21T21:15:07.776Z,0.60
2022-11-21T21:19:12.541Z,0.60
2022-11-21T21:24:51.039Z,0.60
2022-11-21T21:28:53.580Z,0.60
2022-11-21T21:48:51.952Z,0.70
2022-11-21T21:52:59.392Z,0.60
2022-11-21T21:57:04.233Z,0.70
2022-11-21T22:01:23.316Z,0.70
2022-11-21T22:05:25.455Z,0.70
2022-11-21T22:09:30.021Z,0.70
2022-11-21T22:13:32.575Z,0.80
2022-11-21T22:17:34.468Z,0.70
2022-11-21T22:21:41.673Z,0.80
2022-11-21T22:25:43.888Z,0.80
2022-11-21T22:30:29.741Z,0.90
2022-11-21T22:34:34.203Z,0.80
2022-11-21T22:38:36.505Z,0.90
2022-11-21T22:42:38.481Z,0.90
2022-11-21T22:46:40.282Z,1.00
2022-11-21T22:50:45.331Z,1.00
2022-11-21T22:54:47.191Z,1.10
2022-11-21T22:58:49.326Z,1.10
2022-11-21T23:02:52.091Z,1.20
2022-11-21T23:06:54.093Z,1.30
2022-11-21T23:11:05.344Z,1.50
2022-11-21T23:15:07.882Z,1.60
2022-11-21T23:19:09.794Z,1.70
2022-11-21T23:23:11.697Z,1.80
2022-11-21T23:27:16.407Z,1.90
2022-11-21T23:31:23.326Z,1.90
2022-11-21T23:35:25.275Z,2.10
2022-11-21T23:39:38.075Z,2.10
2022-11-21T23:43:40.059Z,2.20
2022-11-21T23:47:43.058Z,2.20
2022-11-21T23:51:44.954Z,2.20
2022-11-21T23:55:47.214Z,2.10
2022-11-21T23:59:49.175Z,1.90
